Time;durP1;ratioP1;P1;durP2;ratioP2;P2;SDS_P1;SDS_P2;PMS_P1;PMS_P2;Temp;Humidity;BMP_temperature;BMP_pressure;BME280_temperature;BME280_humidity;BME280_pressure;Samples;Min_cycle;Max_cycle;Signal;HPM_P1;HPM_P2
2024/01/13 00:00:11;;;;;;;126.73;21.37;;;;;;;-3.64;92.02;96516.72;5013896;28;20297;-76
2024/01/13 00:02:37;;;;;;;114.93;20.00;;;;;;;-3.87;92.43;96514.75;5018288;28;20302;-75
2024/01/13 00:05:02;;;;;;;77.63;18.37;;;;;;;-3.68;92.02;96512.59;4996040;28;20671;-75
2024/01/13 00:07:27;;;;;;;96.03;19.70;;;;;;;-3.86;91.39;96518.97;5010396;28;20651;-76
2024/01/13 00:09:53;;;;;;;47.90;17.23;;;;;;;-3.60;90.83;96515.78;5031917;28;20215;-76
2024/01/13 00:12:18;;;;;;;69.83;18.53;;;;;;;-3.53;90.60;96507.16;4996258;28;20202;-76
2024/01/13 00:14:44;;;;;;;68.03;19.03;;;;;;;-3.49;90.88;96514.63;4996744;28;20191;-75
2024/01/13 00:17:09;;;;;;;60.73;18.00;;;;;;;-3.46;91.14;96506.94;5000280;28;20183;-75
2024/01/13 00:19:34;;;;;;;57.80;17.23;;;;;;;-3.59;91.16;96505.59;5020612;28;20580;-77
2024/01/13 00:22:00;;;;;;;57.70;18.53;;;;;;;-3.44;90.53;96506.91;5000529;28;20691;-75
2024/01/13 00:24:25;;;;;;;49.57;20.03;;;;;;;-3.44;90.50;96506.91;5012044;28;20202;-76
2024/01/13 00:27:15;;;;;;;128.87;21.03;;;;;;;-3.81;92.05;96499.38;5016237;28;20247;-76
2024/01/13 00:29:41;;;;;;;82.13;18.93;;;;;;;-3.77;91.79;96498.44;5017782;28;20201;-76
2024/01/13 00:32:06;;;;;;;126.07;20.87;;;;;;;-4.07;92.47;96498.28;5012942;28;20298;-76
2024/01/13 00:34:31;;;;;;;65.10;17.80;;;;;;;-3.83;92.15;96489.25;5008977;28;20221;-76
2024/01/13 00:36:57;;;;;;;38.80;15.80;;;;;;;-3.56;91.40;96491.97;5014420;28;20194;-76
2024/01/13 00:39:22;;;;;;;91.33;19.33;;;;;;;-3.73;91.15;96485.63;5014987;28;20356;-76
2024/01/13 00:41:47;;;;;;;57.10;17.57;;;;;;;-3.76;91.88;96487.41;5010156;28;20183;-76
2024/01/13 00:44:12;;;;;;;66.43;18.90;;;;;;;-3.82;91.73;96480.78;5015794;28;20776;-76
2024/01/13 00:46:38;;;;;;;61.03;17.47;;;;;;;-3.80;91.65;96485.81;5013069;28;20326;-75
2024/01/13 00:49:03;;;;;;;98.83;18.17;;;;;;;-3.74;90.50;96489.03;5014465;28;20207;-76
2024/01/13 00:51:30;;;;;;;51.40;17.67;;;;;;;-3.62;90.79;96477.75;4996954;28;20186;-76
2024/01/13 00:53:55;;;;;;;40.53;16.13;;;;;;;-3.51;90.37;96485.09;5013696;28;20172;-76
2024/01/13 00:56:21;;;;;;;42.13;17.10;;;;;;;-3.64;90.00;96473.56;5012551;28;20617;-76
2024/01/13 00:58:46;;;;;;;37.43;16.63;;;;;;;-3.68;90.56;96477.06;5013082;28;20203;-76
2024/01/13 01:01:12;;;;;;;38.83;17.67;;;;;;;-3.76;90.33;96475.56;5009621;28;20175;-76
2024/01/13 01:03:37;;;;;;;60.30;17.53;;;;;;;-3.96;90.34;96467.59;5017043;28;20569;-77
2024/01/13 01:06:04;;;;;;;45.17;17.27;;;;;;;-4.01;90.81;96466.88;5013935;28;20209;-77
2024/01/13 01:08:29;;;;;;;78.43;19.93;;;;;;;-4.30;91.54;96459.97;4996777;28;20214;-77
2024/01/13 01:10:54;;;;;;;34.40;17.87;;;;;;;-3.88;90.81;96459.81;5012901;28;20683;-77
2024/01/13 01:13:20;;;;;;;46.27;18.33;;;;;;;-3.80;90.06;96466.38;4998539;28;20183;-77
2024/01/13 01:15:45;;;;;;;86.53;20.63;;;;;;;-4.07;90.53;96464.47;5013349;28;20190;-77
2024/01/13 01:18:10;;;;;;;50.27;18.57;;;;;;;-4.05;89.95;96457.69;5016885;28;20286;-76
2024/01/13 01:20:36;;;;;;;49.73;16.10;;;;;;;-4.14;90.72;96462.97;5014249;28;20190;-76
2024/01/13 01:23:01;;;;;;;56.27;19.60;;;;;;;-3.99;90.71;96467.66;5014546;28;20183;-76
2024/01/13 01:25:26;;;;;;;51.50;18.23;;;;;;;-4.32;91.57;96467.63;5012919;28;20187;-75
2024/01/13 01:27:52;;;;;;;37.30;15.87;;;;;;;-4.29;91.77;96464.16;5013341;28;20194;-76
2024/01/13 01:30:17;;;;;;;58.23;18.20;;;;;;;-4.25;92.28;96457.31;5013611;28;20633;-76
2024/01/13 01:32:43;;;;;;;45.53;19.20;;;;;;;-4.22;92.31;96464.88;5012363;28;20202;-76
2024/01/13 01:35:08;;;;;;;58.13;22.00;;;;;;;-4.02;91.13;96457.59;4995526;28;20183;-76
2024/01/13 01:37:34;;;;;;;44.20;18.43;;;;;;;-3.92;91.17;96461.56;5015277;28;20278;-76
2024/01/13 01:39:59;;;;;;;47.57;18.53;;;;;;;-3.93;90.69;96452.28;5012195;28;20231;-76
2024/01/13 01:42:25;;;;;;;44.00;18.87;;;;;;;-3.75;90.16;96454.38;5012516;28;20198;-75
2024/01/13 01:44:50;;;;;;;54.37;17.63;;;;;;;-3.76;89.76;96449.34;5015405;28;20203;-75
2024/01/13 01:47:18;;;;;;;39.83;17.63;;;;;;;-3.78;90.46;96446.00;5012620;28;20198;-76
2024/01/13 01:49:44;;;;;;;49.47;20.50;;;;;;;-3.75;90.27;96444.22;5012526;28;20289;-76
2024/01/13 01:52:09;;;;;;;43.30;17.93;;;;;;;-3.69;90.21;96433.09;5013719;28;20218;-75
2024/01/13 01:54:35;;;;;;;41.13;18.10;;;;;;;-3.62;89.82;96429.50;5017377;28;20586;-76
2024/01/13 01:57:01;;;;;;;42.03;17.53;;;;;;;-3.73;89.21;96432.31;5009352;28;20749;-76
2024/01/13 01:59:26;;;;;;;42.63;17.53;;;;;;;-3.68;89.56;96426.28;5011916;28;20294;-75
2024/01/13 02:01:52;;;;;;;42.53;18.77;;;;;;;-3.68;89.51;96433.91;5013764;28;20667;-75
2024/01/13 02:04:17;;;;;;;43.63;19.53;;;;;;;-3.68;89.48;96429.66;5014420;28;20207;-75
2024/01/13 02:06:43;;;;;;;47.60;19.93;;;;;;;-3.71;89.60;96422.97;5012729;28;20276;-76
2024/01/13 02:09:09;;;;;;;65.67;24.27;;;;;;;-3.92;89.23;96430.28;5012606;28;20581;-76
2024/01/13 02:11:35;;;;;;;41.00;21.17;;;;;;;-3.73;89.21;96424.69;4997591;28;20179;-77
2024/01/13 02:14:01;;;;;;;47.80;22.17;;;;;;;-3.90;89.04;96426.84;5014893;28;20189;-75
2024/01/13 02:16:27;;;;;;;45.73;19.37;;;;;;;-3.73;89.86;96422.16;5007906;28;20568;-75
2024/01/13 02:18:52;;;;;;;44.73;20.93;;;;;;;-3.78;89.56;96430.78;5014105;28;20210;-76
2024/01/13 02:21:18;;;;;;;50.00;23.20;;;;;;;-4.11;88.94;96427.38;5012028;28;20197;-75
2024/01/13 02:23:43;;;;;;;47.53;22.87;;;;;;;-3.91;89.39;96427.72;5013954;28;20205;-75
2024/01/13 02:26:08;;;;;;;54.80;23.70;;;;;;;-3.98;88.98;96416.03;5011836;28;20197;-75
2024/01/13 02:28:34;;;;;;;44.10;22.73;;;;;;;-4.32;89.71;96414.38;5017932;28;20293;-75
2024/01/13 02:30:59;;;;;;;44.10;22.80;;;;;;;-4.09;89.78;96407.88;5010943;28;20195;-76
2024/01/13 02:33:25;;;;;;;48.20;24.10;;;;;;;-4.10;89.26;96406.22;5011150;28;20190;-76
2024/01/13 02:35:50;;;;;;;50.63;23.77;;;;;;;-4.03;88.43;96412.81;5010411;28;20270;-75
2024/01/13 02:38:15;;;;;;;47.60;22.70;;;;;;;-3.91;88.22;96404.03;4997819;28;20211;-76
2024/01/13 02:40:41;;;;;;;46.20;22.87;;;;;;;-4.07;88.24;96401.88;4996523;28;20220;-76
2024/01/13 02:43:06;;;;;;;49.73;23.37;;;;;;;-4.09;88.72;96397.72;5010249;28;20598;-76
2024/01/13 02:45:31;;;;;;;45.97;23.00;;;;;;;-4.03;87.98;96405.19;4997199;28;20214;-76
2024/01/13 02:48:20;;;;;;;44.97;21.87;;;;;;;-4.06;88.62;96400.22;5014567;28;20230;-76
2024/01/13 02:50:53;;;;;;;42.20;21.13;;;;;;;-4.14;88.54;96392.78;4997608;28;20202;-75
2024/01/13 02:53:19;;;;;;;49.47;20.87;;;;;;;-4.17;88.48;96381.88;5010996;28;20184;-75
2024/01/13 02:55:44;;;;;;;45.33;19.63;;;;;;;-4.20;89.51;96379.41;5011569;28;20285;-75
2024/01/13 02:58:09;;;;;;;43.40;20.03;;;;;;;-4.00;89.18;96379.75;5011881;28;20234;-76
2024/01/13 03:00:35;;;;;;;42.80;20.27;;;;;;;-4.05;88.86;96377.34;4993761;28;20179;-76
2024/01/13 03:03:00;;;;;;;45.33;22.03;;;;;;;-3.94;88.80;96368.59;5017019;28;20283;-76
2024/01/13 03:05:25;;;;;;;50.43;22.73;;;;;;;-3.86;88.31;96361.63;5013595;28;20187;-76
2024/01/13 03:07:51;;;;;;;40.83;21.03;;;;;;;-3.94;87.82;96366.91;4994337;28;20618;-76
2024/01/13 03:10:16;;;;;;;41.73;21.43;;;;;;;-4.19;88.25;96365.88;5012941;28;20246;-76
2024/01/13 03:12:41;;;;;;;41.47;19.53;;;;;;;-4.01;87.95;96358.59;5014631;28;20202;-76
2024/01/13 03:15:07;;;;;;;44.33;20.73;;;;;;;-3.91;87.92;96364.28;5011732;28;20190;-75
2024/01/13 03:17:32;;;;;;;39.20;18.20;;;;;;;-4.09;88.37;96363.03;5013189;28;20306;-76
2024/01/13 03:19:58;;;;;;;40.50;18.57;;;;;;;-4.25;88.71;96361.75;5013539;28;20222;-76
2024/01/13 03:22:23;;;;;;;43.60;18.07;;;;;;;-4.21;89.44;96362.53;5012226;28;20190;-75
2024/01/13 03:24:49;;;;;;;38.10;18.30;;;;;;;-3.94;88.91;96366.91;5010991;28;20298;-75
2024/01/13 03:27:14;;;;;;;35.93;18.07;;;;;;;-3.86;88.13;96369.25;5012816;28;20250;-76
2024/01/13 03:29:40;;;;;;;44.80;17.23;;;;;;;-3.85;87.88;96376.81;5018531;28;20241;-76
2024/01/13 03:32:05;;;;;;;34.47;15.47;;;;;;;-3.82;88.15;96375.88;5014634;28;20206;-75
2024/01/13 03:34:31;;;;;;;87.53;16.10;;;;;;;-4.14;88.48;96361.53;5014883;28;20257;-75
2024/01/13 03:36:56;;;;;;;32.53;14.40;;;;;;;-3.82;88.26;96363.19;4997279;28;20279;-75
2024/01/13 03:39:21;;;;;;;32.93;15.03;;;;;;;-3.75;87.96;96362.16;5014264;28;20215;-76
2024/01/13 03:41:49;;;;;;;34.00;14.63;;;;;;;-3.72;87.64;96365.44;5015747;28;20262;-76
2024/01/13 03:44:14;;;;;;;36.37;16.00;;;;;;;-3.81;88.28;96357.25;5015079;28;20283;-76
2024/01/13 03:46:39;;;;;;;31.27;14.80;;;;;;;-3.82;87.67;96361.50;5016195;28;20278;-76
2024/01/13 03:49:05;;;;;;;42.23;17.33;;;;;;;-4.03;88.83;96359.53;4998780;28;20231;-75
2024/01/13 03:51:30;;;;;;;36.13;16.40;;;;;;;-4.01;88.81;96345.94;5015241;28;20175;-75
2024/01/13 03:53:56;;;;;;;28.77;14.70;;;;;;;-3.80;87.67;96346.22;5018043;28;20187;-75
2024/01/13 03:56:21;;;;;;;31.67;16.40;;;;;;;-3.76;87.88;96337.66;5017005;28;20233;-74
2024/01/13 03:58:46;;;;;;;37.67;15.80;;;;;;;-3.86;87.97;96337.09;4997228;28;20210;-76
2024/01/13 04:01:12;;;;;;;38.80;17.50;;;;;;;-3.90;88.33;96339.72;5012638;28;20220;-76
2024/01/13 04:03:37;;;;;;;78.53;18.33;;;;;;;-3.97;87.56;96331.47;5000492;28;20571;-76
2024/01/13 04:06:03;;;;;;;34.70;14.83;;;;;;;-3.81;87.09;96335.22;4998336;28;20190;-76
2024/01/13 04:08:28;;;;;;;43.03;16.17;;;;;;;-3.89;87.31;96328.69;5015120;28;20226;-76
2024/01/13 04:10:54;;;;;;;33.67;15.97;;;;;;;-3.80;87.96;96336.94;5015227;28;20191;-74
2024/01/13 04:13:19;;;;;;;37.93;17.93;;;;;;;-3.72;86.59;96326.53;5014249;28;20222;-73
2024/01/13 04:15:44;;;;;;;38.60;17.23;;;;;;;-3.63;86.51;96317.84;5013691;28;20191;-76
2024/01/13 04:18:10;;;;;;;35.80;17.67;;;;;;;-3.74;86.52;96308.81;4998868;28;20250;-74
2024/01/13 04:20:35;;;;;;;34.67;15.97;;;;;;;-3.77;86.86;96311.44;4999964;28;20194;-76
2024/01/13 04:23:01;;;;;;;31.70;15.83;;;;;;;-3.74;86.42;96292.75;5013144;28;20191;-76
2024/01/13 04:25:26;;;;;;;34.43;16.67;;;;;;;-3.64;87.02;96303.47;5013093;28;20553;-76
2024/01/13 04:27:53;;;;;;;33.03;16.13;;;;;;;-3.71;86.66;96312.97;5015232;28;20648;-75
2024/01/13 04:30:19;;;;;;;33.87;16.63;;;;;;;-3.80;87.25;96315.75;5016473;28;20696;-75
2024/01/13 04:32:44;;;;;;;35.23;16.67;;;;;;;-3.69;86.90;96316.31;5014017;28;20187;-75
2024/01/13 04:35:10;;;;;;;32.47;15.50;;;;;;;-3.78;86.90;96314.88;5014645;28;20191;-76
2024/01/13 04:37:35;;;;;;;32.50;14.70;;;;;;;-3.89;86.62;96321.09;5016709;28;20179;-75
2024/01/13 04:40:01;;;;;;;29.57;14.63;;;;;;;-4.16;88.30;96317.59;5018761;28;20207;-77
2024/01/13 04:42:26;;;;;;;32.10;15.30;;;;;;;-4.04;88.32;96317.28;5015620;28;20195;-76
2024/01/13 04:44:51;;;;;;;33.13;15.70;;;;;;;-3.95;87.72;96316.19;5015594;28;20199;-77
2024/01/13 04:47:17;;;;;;;30.73;15.00;;;;;;;-3.85;87.78;96323.50;5013279;28;20530;-75
2024/01/13 04:49:42;;;;;;;35.50;14.83;;;;;;;-3.90;87.47;96310.09;5013921;28;20265;-74
2024/01/13 04:52:07;;;;;;;33.33;15.83;;;;;;;-3.82;87.21;96318.34;5013412;28;20234;-75
2024/01/13 04:54:33;;;;;;;35.73;16.33;;;;;;;-3.89;88.02;96314.31;5018533;28;20192;-75
2024/01/13 04:57:00;;;;;;;33.90;15.33;;;;;;;-3.87;87.80;96315.13;5013396;28;20278;-75
2024/01/13 04:59:25;;;;;;;34.40;15.40;;;;;;;-3.72;87.97;96306.22;5010419;28;20207;-75
2024/01/13 05:01:50;;;;;;;32.83;15.40;;;;;;;-3.64;87.27;96303.47;5013283;28;20245;-75
2024/01/13 05:04:16;;;;;;;38.73;16.40;;;;;;;-3.70;87.11;96307.03;4999418;28;20209;-75
2024/01/13 05:06:41;;;;;;;29.93;15.27;;;;;;;-3.89;86.68;96306.69;5014096;28;20649;-75
2024/01/13 05:09:07;;;;;;;30.43;15.17;;;;;;;-3.72;87.22;96308.75;5012110;28;20573;-75
2024/01/13 05:11:32;;;;;;;29.10;14.87;;;;;;;-3.92;87.31;96306.78;4997426;28;20222;-76
2024/01/13 05:13:57;;;;;;;29.73;15.00;;;;;;;-4.01;87.45;96301.97;5018674;28;20179;-77
2024/01/13 05:16:22;;;;;;;28.93;15.00;;;;;;;-3.81;87.17;96307.31;5016440;28;20222;-76
2024/01/13 05:18:48;;;;;;;29.77;15.27;;;;;;;-3.70;86.46;96301.97;5015750;28;20244;-77
2024/01/13 05:21:13;;;;;;;32.90;15.67;;;;;;;-3.74;86.53;96311.34;4997140;28;20198;-76
2024/01/13 05:23:39;;;;;;;35.30;16.47;;;;;;;-3.77;86.36;96303.00;4996611;28;20207;-76
2024/01/13 05:26:04;;;;;;;32.60;16.50;;;;;;;-3.62;86.06;96305.13;5012706;28;20218;-77
2024/01/13 05:28:29;;;;;;;34.03;15.67;;;;;;;-3.73;86.52;96312.19;5016437;28;20230;-76
2024/01/13 05:30:55;;;;;;;32.83;15.33;;;;;;;-3.81;86.91;96304.78;5013979;28;20183;-76
2024/01/13 05:33:20;;;;;;;26.10;13.70;;;;;;;-3.90;87.11;96301.66;5011590;28;20287;-77
2024/01/13 05:35:45;;;;;;;34.00;15.17;;;;;;;-3.85;87.31;96303.22;4994601;28;20190;-75
2024/01/13 05:38:11;;;;;;;28.60;14.63;;;;;;;-4.09;87.63;96304.69;4996529;28;20206;-75
2024/01/13 05:40:40;;;;;;;30.53;14.57;;;;;;;-3.95;87.81;96290.81;5013799;28;20226;-75
2024/01/13 05:43:06;;;;;;;30.77;14.43;;;;;;;-3.84;86.65;96294.72;5012007;28;20214;-75
2024/01/13 05:45:31;;;;;;;27.07;14.37;;;;;;;-4.17;88.01;96291.38;5015773;28;20230;-77
2024/01/13 05:47:58;;;;;;;29.20;15.50;;;;;;;-3.79;87.74;96287.00;4996333;28;20219;-75
2024/01/13 05:50:23;;;;;;;28.37;13.70;;;;;;;-3.76;87.19;96289.44;5013319;28;20673;-75
2024/01/13 05:52:48;;;;;;;30.23;14.27;;;;;;;-3.65;86.98;96281.50;4997025;28;20756;-77
2024/01/13 05:55:14;;;;;;;30.07;14.83;;;;;;;-3.56;86.44;96278.69;5015973;28;20662;-76
2024/01/13 05:57:39;;;;;;;33.37;14.00;;;;;;;-3.84;86.82;96286.28;5012711;28;20190;-74
2024/01/13 06:00:09;;;;;;;30.40;14.83;;;;;;;-3.78;87.01;96278.50;5010930;28;20229;-75
2024/01/13 06:02:35;;;;;;;29.60;12.50;;;;;;;-3.75;87.32;96284.31;5014380;28;20249;-75
2024/01/13 06:05:00;;;;;;;30.83;13.43;;;;;;;-3.83;87.64;96278.63;5015017;28;20202;-74
2024/01/13 06:07:26;;;;;;;29.33;13.63;;;;;;;-3.81;88.21;96283.66;5013146;28;20183;-75
2024/01/13 06:09:51;;;;;;;28.20;12.60;;;;;;;-3.71;87.77;96275.75;5011269;28;20229;-75
2024/01/13 06:12:17;;;;;;;33.70;14.50;;;;;;;-3.59;87.15;96276.25;5012558;28;20281;-76
2024/01/13 06:14:42;;;;;;;28.70;13.70;;;;;;;-3.57;87.39;96272.78;5018118;28;20276;-75
2024/01/13 06:17:08;;;;;;;29.77;13.70;;;;;;;-3.62;87.14;96279.72;5012022;28;20249;-77
2024/01/13 06:19:33;;;;;;;26.73;14.60;;;;;;;-3.46;87.51;96268.22;4994739;28;20218;-77
2024/01/13 06:21:59;;;;;;;24.57;12.27;;;;;;;-3.49;87.14;96262.41;5011317;28;20298;-77
2024/01/13 06:24:24;;;;;;;27.77;12.53;;;;;;;-3.36;87.09;96257.78;5014109;28;20214;-76
2024/01/13 06:26:49;;;;;;;27.73;12.87;;;;;;;-3.29;86.57;96264.34;4993778;28;20199;-76
2024/01/13 06:29:15;;;;;;;24.47;13.33;;;;;;;-3.30;86.51;96260.97;5012910;28;20207;-77
2024/01/13 06:31:40;;;;;;;27.33;13.53;;;;;;;-3.40;86.30;96264.69;4996868;28;20239;-77
2024/01/13 06:34:06;;;;;;;31.83;13.63;;;;;;;-3.48;86.63;96262.38;5013923;28;20183;-76
2024/01/13 06:36:31;;;;;;;26.43;12.93;;;;;;;-3.28;86.54;96268.56;5016098;28;20179;-78
2024/01/13 06:38:56;;;;;;;27.53;13.80;;;;;;;-3.26;86.25;96269.38;5011990;28;20214;-76
2024/01/13 06:41:22;;;;;;;21.23;10.67;;;;;;;-3.18;86.14;96270.78;5012756;28;20619;-75
2024/01/13 06:43:47;;;;;;;17.73;9.93;;;;;;;-3.09;86.31;96269.69;5013760;28;20208;-76
2024/01/13 06:46:13;;;;;;;19.10;10.57;;;;;;;-3.02;86.06;96272.84;5009719;28;20197;-76
2024/01/13 06:48:38;;;;;;;18.87;9.30;;;;;;;-3.19;86.06;96268.28;5014457;28;20628;-76
2024/01/13 06:51:04;;;;;;;19.30;10.37;;;;;;;-3.05;86.44;96265.31;5012213;28;20187;-77
2024/01/13 06:53:29;;;;;;;18.80;10.00;;;;;;;-3.02;86.06;96260.13;5015402;28;20191;-77
2024/01/13 06:55:55;;;;;;;19.10;9.67;;;;;;;-3.21;86.21;96255.63;5013854;28;20188;-76
2024/01/13 06:58:20;;;;;;;18.57;8.97;;;;;;;-3.05;86.12;96257.69;5011366;28;20212;-76
2024/01/13 07:00:45;;;;;;;16.00;8.33;;;;;;;-3.03;86.08;96254.22;5012034;28;20183;-76
2024/01/13 07:03:11;;;;;;;19.63;9.83;;;;;;;-2.98;86.01;96254.91;5017684;28;20186;-75
2024/01/13 07:05:36;;;;;;;16.87;8.80;;;;;;;-2.94;86.03;96241.22;5002347;28;20187;-76
2024/01/13 07:08:03;;;;;;;18.27;9.67;;;;;;;-3.05;85.61;96243.28;5014328;28;20757;-76
2024/01/13 07:10:29;;;;;;;17.00;8.67;;;;;;;-2.96;85.99;96239.63;5016276;28;20563;-75
2024/01/13 07:12:56;;;;;;;17.53;8.60;;;;;;;-2.90;86.20;96231.81;5015922;28;20269;-76
2024/01/13 07:15:21;;;;;;;20.40;9.60;;;;;;;-2.93;86.04;96230.16;5015474;28;20321;-77
2024/01/13 07:17:46;;;;;;;20.80;10.17;;;;;;;-2.88;86.34;96232.56;5014211;28;20273;-77
2024/01/13 07:20:12;;;;;;;23.83;9.97;;;;;;;-2.90;86.21;96244.50;4997632;28;20237;-77
2024/01/13 07:22:37;;;;;;;18.50;10.40;;;;;;;-2.91;86.26;96242.84;5020025;28;20278;-77
2024/01/13 07:25:03;;;;;;;30.73;16.27;;;;;;;-2.88;86.42;96235.13;5019042;28;20214;-77
2024/01/13 07:27:29;;;;;;;56.47;27.90;;;;;;;-2.80;86.46;96235.69;5018682;28;20179;-78
2024/01/13 07:29:55;;;;;;;52.03;25.57;;;;;;;-2.88;86.03;96233.41;5018921;28;20620;-76
2024/01/13 07:32:20;;;;;;;25.47;13.87;;;;;;;-2.89;86.42;96230.91;4998645;28;20664;-76
2024/01/13 07:34:45;;;;;;;21.37;10.30;;;;;;;-2.88;86.24;96232.56;5030230;28;20183;-76
2024/01/13 07:37:11;;;;;;;40.07;18.37;;;;;;;-2.96;86.27;96234.53;5014869;28;20494;-77
2024/01/13 07:39:36;;;;;;;20.30;11.33;;;;;;;-2.90;86.00;96241.97;5020803;28;20249;-76
2024/01/13 07:42:01;;;;;;;21.37;11.53;;;;;;;-2.78;85.79;96248.34;5016584;28;20188;-76
2024/01/13 07:44:27;;;;;;;32.87;18.77;;;;;;;-2.82;85.67;96252.72;5014885;28;20219;-76
2024/01/13 07:46:53;;;;;;;21.40;11.27;;;;;;;-2.88;85.94;96246.13;4998981;28;20673;-77
2024/01/13 07:49:18;;;;;;;20.53;12.67;;;;;;;-2.89;86.24;96244.44;5016826;28;20206;-77
2024/01/13 07:51:49;;;;;;;35.10;20.97;;;;;;;-2.83;86.13;96240.88;4996754;28;20338;-77
2024/01/13 07:54:14;;;;;;;28.30;17.27;;;;;;;-2.77;85.94;96255.09;5018566;28;20194;-76
2024/01/13 07:56:41;;;;;;;26.70;15.57;;;;;;;-2.81;85.66;96249.28;5018094;28;20187;-76
2024/01/13 07:59:07;;;;;;;26.23;16.07;;;;;;;-2.86;85.94;96235.88;5011763;28;20210;-77
2024/01/13 08:01:32;;;;;;;20.53;12.80;;;;;;;-2.73;85.69;96249.03;5026955;28;20180;-77
2024/01/13 08:03:57;;;;;;;20.70;11.47;;;;;;;-2.85;85.95;96240.09;5022380;28;20224;-78
2024/01/13 08:06:23;;;;;;;18.77;11.40;;;;;;;-2.73;85.31;96234.63;5004539;28;20183;-77
2024/01/13 08:08:48;;;;;;;26.60;14.30;;;;;;;-2.75;85.08;96228.72;5002494;28;20298;-78
2024/01/13 08:11:13;;;;;;;21.27;12.77;;;;;;;-2.70;85.42;96231.13;5004639;28;20657;-76
2024/01/13 08:13:39;;;;;;;30.40;13.77;;;;;;;-3.08;85.65;96229.84;5006759;28;20209;-78
2024/01/13 08:16:04;;;;;;;23.37;12.83;;;;;;;-2.81;85.86;96230.66;5019793;28;20186;-77
2024/01/13 08:18:30;;;;;;;26.50;17.53;;;;;;;-2.91;85.60;96243.69;5020150;28;20258;-76
2024/01/13 08:20:55;;;;;;;21.30;13.60;;;;;;;-2.89;85.62;96246.16;5021553;28;20187;-77
2024/01/13 08:23:20;;;;;;;21.40;10.83;;;;;;;-2.86;85.64;96244.34;5003318;28;20208;-78
2024/01/13 08:25:45;;;;;;;23.10;12.83;;;;;;;-2.91;85.52;96242.84;5003422;28;20195;-77
2024/01/13 08:28:11;;;;;;;21.20;11.70;;;;;;;-2.79;85.69;96251.78;5021738;28;20330;-77
2024/01/13 08:30:37;;;;;;;25.17;13.13;;;;;;;-2.86;85.04;96259.59;5019670;28;20183;-77
2024/01/13 08:33:04;;;;;;;25.67;13.90;;;;;;;-2.73;84.80;96254.13;5014312;28;20183;-76
2024/01/13 08:35:30;;;;;;;26.50;14.10;;;;;;;-3.03;85.02;96245.75;5014535;28;20211;-76
2024/01/13 08:37:56;;;;;;;21.73;11.43;;;;;;;-3.04;85.38;96244.09;5015467;28;20737;-77
2024/01/13 08:40:22;;;;;;;24.57;13.03;;;;;;;-2.94;85.27;96246.28;5018851;28;20238;-77
2024/01/13 08:42:49;;;;;;;25.57;12.97;;;;;;;-2.97;85.73;96243.03;5035858;28;20191;-77
2024/01/13 08:45:14;;;;;;;28.73;13.77;;;;;;;-2.83;85.41;96234.94;5014393;28;20199;-77
2024/01/13 08:47:40;;;;;;;31.50;13.93;;;;;;;-2.99;85.69;96234.63;5017378;28;20199;-78
2024/01/13 08:50:06;;;;;;;24.20;14.00;;;;;;;-2.83;85.71;96235.78;5020651;28;20566;-77
2024/01/13 08:52:31;;;;;;;28.97;14.20;;;;;;;-2.72;85.32;96243.91;5002573;28;20191;-78
2024/01/13 08:54:57;;;;;;;59.87;33.13;;;;;;;-2.81;85.47;96244.22;5022403;28;20186;-77
2024/01/13 08:57:22;;;;;;;39.43;19.93;;;;;;;-2.76;85.50;96244.88;5003695;28;20206;-78
2024/01/13 08:59:47;;;;;;;35.43;19.83;;;;;;;-2.70;84.92;96249.75;5018229;28;20210;-78
2024/01/13 09:02:13;;;;;;;31.47;16.27;;;;;;;-2.58;85.35;96259.53;5001987;28;20282;-76
2024/01/13 09:04:38;;;;;;;37.13;19.97;;;;;;;-2.57;84.74;96266.25;5025879;28;20234;-78
2024/01/13 09:07:04;;;;;;;29.40;15.30;;;;;;;-2.61;85.12;96264.72;5020699;28;20191;-76
2024/01/13 09:09:29;;;;;;;24.67;12.73;;;;;;;-2.58;84.85;96267.16;5011999;28;20234;-77
2024/01/13 09:11:55;;;;;;;28.53;13.50;;;;;;;-2.53;84.79;96269.56;4999382;28;20198;-77
2024/01/13 09:14:20;;;;;;;19.87;11.30;;;;;;;-2.73;84.69;96261.75;5019727;28;20192;-78
2024/01/13 09:16:46;;;;;;;21.90;11.73;;;;;;;-2.66;84.54;96256.41;5021328;28;20904;-78
2024/01/13 09:19:11;;;;;;;18.30;10.57;;;;;;;-2.61;84.54;96254.53;5020118;28;20420;-78
2024/01/13 09:21:37;;;;;;;22.30;12.17;;;;;;;-2.55;84.70;96261.16;5022925;28;20190;-78
2024/01/13 09:24:02;;;;;;;17.70;9.80;;;;;;;-2.59;84.80;96250.22;5017258;28;20696;-78
2024/01/13 09:26:29;;;;;;;13.97;7.37;;;;;;;-2.96;85.38;96247.25;5018277;28;20207;-78
2024/01/13 09:28:54;;;;;;;14.83;8.20;;;;;;;-2.72;85.10;96248.16;5019790;28;20206;-78
2024/01/13 09:31:20;;;;;;;16.10;9.53;;;;;;;-2.61;85.27;96257.09;5020413;28;20187;-78
2024/01/13 09:33:45;;;;;;;28.03;17.00;;;;;;;-2.64;84.73;96257.19;5000775;28;20179;-78
2024/01/13 09:36:10;;;;;;;30.70;21.00;;;;;;;-2.77;85.58;96266.09;5017315;28;20266;-78
2024/01/13 09:38:36;;;;;;;25.13;17.10;;;;;;;-2.58;84.78;96261.22;5019795;28;20221;-77
2024/01/13 09:41:01;;;;;;;30.97;20.10;;;;;;;-2.59;84.98;96257.84;5020591;28;20337;-77
2024/01/13 09:43:50;;;;;;;15.87;11.07;;;;;;;-2.46;84.85;96260.84;5015825;28;20706;-77
2024/01/13 09:46:16;;;;;;;18.00;10.60;;;;;;;-2.51;84.38;96257.59;5011825;28;20188;-77
2024/01/13 09:48:43;;;;;;;19.97;9.07;;;;;;;-2.62;85.55;96245.25;4997702;28;20561;-75
2024/01/13 09:51:08;;;;;;;16.20;8.20;;;;;;;-2.83;85.96;96248.50;5011379;28;20179;-77
2024/01/13 09:53:34;;;;;;;13.80;8.07;;;;;;;-2.49;85.01;96243.13;4998628;28;20213;-77
2024/01/13 09:56:13;;;;;;;17.53;10.10;;;;;;;-2.52;84.95;96240.69;5019209;28;20700;-77
2024/01/13 09:58:39;;;;;;;16.37;9.87;;;;;;;-2.59;84.47;96229.88;5018026;28;20215;-76
2024/01/13 10:01:06;;;;;;;13.00;8.30;;;;;;;-2.36;84.27;96225.75;5001353;28;20194;-78
2024/01/13 10:03:32;;;;;;;12.40;6.47;;;;;;;-2.55;83.86;96219.63;5000271;28;20334;-77
2024/01/13 10:05:57;;;;;;;15.67;7.50;;;;;;;-2.50;84.03;96212.66;5016554;28;20180;-78
2024/01/13 10:08:33;;;;;;;12.17;7.43;;;;;;;-2.45;83.61;96206.53;5013550;28;20208;-76
2024/01/13 10:11:04;;;;;;;13.93;7.03;;;;;;;-2.50;84.24;96217.75;5005003;28;20188;-77
2024/01/13 10:13:30;;;;;;;11.90;7.50;;;;;;;-2.53;84.14;96215.31;4995754;28;20701;-77
2024/01/13 10:15:55;;;;;;;11.63;7.53;;;;;;;-2.52;84.22;96206.81;4998637;28;20206;-77
2024/01/13 10:18:23;;;;;;;10.77;6.37;;;;;;;-2.54;84.79;96193.31;4997239;28;20247;-78
2024/01/13 10:20:49;;;;;;;9.10;6.07;;;;;;;-2.64;85.04;96186.00;5014328;28;20662;-76
2024/01/13 10:23:15;;;;;;;11.47;6.53;;;;;;;-2.41;84.12;96182.66;5016082;28;20227;-77
2024/01/13 10:25:40;;;;;;;12.70;6.67;;;;;;;-2.59;83.92;96199.38;4997958;28;20206;-76
2024/01/13 10:28:05;;;;;;;19.57;11.40;;;;;;;-2.66;84.53;96213.16;5004377;28;20642;-79
2024/01/13 10:30:31;;;;;;;37.40;20.40;;;;;;;-2.52;84.41;96214.44;5025825;28;20219;-76
2024/01/13 10:33:00;;;;;;;14.63;9.60;;;;;;;-2.49;84.34;96220.22;5019418;28;20553;-75
2024/01/13 10:35:28;;;;;;;15.17;8.37;;;;;;;-2.62;84.38;96224.91;5015852;28;20186;-79
2024/01/13 10:38:00;;;;;;;16.60;9.83;;;;;;;-2.46;83.87;96232.88;5021167;28;20269;-79
2024/01/13 10:40:26;;;;;;;27.50;16.87;;;;;;;-2.74;83.52;96225.34;5017644;28;20196;-76
2024/01/13 10:42:58;;;;;;;37.63;18.50;;;;;;;-2.62;84.82;96201.19;5012300;28;20184;-77
2024/01/13 10:45:24;;;;;;;40.70;21.40;;;;;;;-2.67;84.31;96195.44;4995709;28;20680;-76
2024/01/13 10:47:53;;;;;;;35.57;18.83;;;;;;;-2.56;84.37;96188.28;5015560;28;20194;-76
2024/01/13 10:50:19;;;;;;;35.10;19.93;;;;;;;-2.36;83.69;96177.41;5013381;28;20190;-76
2024/01/13 10:53:24;;;;;;;36.97;20.57;;;;;;;-2.31;83.35;96180.59;4995415;28;20251;-76
2024/01/13 10:55:50;;;;;;;47.83;23.93;;;;;;;-2.42;83.71;96167.44;4996651;28;20197;-77
2024/01/13 10:58:17;;;;;;;34.63;17.70;;;;;;;-2.29;83.35;96158.50;5017569;28;20203;-78
2024/01/13 11:00:43;;;;;;;27.00;12.93;;;;;;;-2.30;83.24;96150.06;5016372;28;20182;-79
2024/01/13 11:03:08;;;;;;;30.17;13.40;;;;;;;-2.22;83.31;96143.81;5014141;28;20190;-78
2024/01/13 11:05:34;;;;;;;32.37;15.80;;;;;;;-2.19;83.08;96151.38;5012830;28;20261;-77
2024/01/13 11:08:03;;;;;;;24.80;12.20;;;;;;;-2.40;83.19;96151.25;4994349;28;20231;-79
2024/01/13 11:10:32;;;;;;;45.67;19.87;;;;;;;-2.22;82.86;96147.19;4993735;28;20684;-78